Time;durP1;ratioP1;P1;durP2;ratioP2;P2;SDS_P1;SDS_P2;PMS_P1;PMS_P2;Temp;Humidity;BMP_temperature;BMP_pressure;BME280_temperature;BME280_humidity;BME280_pressure;Samples;Min_cycle;Max_cycle;Signal;HPM_P1;HPM_P2
2022/01/26 00:05:45;;;;;;;39.53;24.13;;;;;;;0.93;100.00;102488.22;696679;28;1257;-52
2022/01/26 00:06:12;;;;;;;41.65;22.70;;;;;;;0.93;100.00;102493.38;696585;28;4320;-53
2022/01/26 00:06:34;;;;;;;40.10;23.05;;;;;;;0.92;100.00;102491.56;699018;28;1245;-55
2022/01/26 00:06:55;;;;;;;39.80;23.35;;;;;;;0.92;100.00;102491.56;699915;28;1336;-56
2022/01/26 00:07:15;;;;;;;39.47;22.60;;;;;;;0.92;100.00;102496.72;699504;28;1178;-55
2022/01/26 00:07:36;;;;;;;39.57;22.80;;;;;;;0.92;100.00;102494.16;701301;28;1368;-53
2022/01/26 00:07:57;;;;;;;41.63;23.98;;;;;;;0.91;100.00;102492.34;700183;28;1242;-55
2022/01/26 00:08:23;;;;;;;41.03;23.63;;;;;;;0.90;100.00;102498.31;699839;28;1306;-55
2022/01/26 00:08:43;;;;;;;40.58;23.73;;;;;;;0.89;100.00;102495.63;699063;28;1310;-53
2022/01/26 00:09:08;;;;;;;38.90;22.77;;;;;;;0.90;100.00;102497.41;699752;28;4425;-52
2022/01/26 00:09:29;;;;;;;39.67;23.77;;;;;;;0.89;100.00;102491.38;699783;28;1559;-53
2022/01/26 00:09:49;;;;;;;40.37;23.57;;;;;;;0.89;100.00;102495.63;700603;28;1519;-55
2022/01/26 00:10:09;;;;;;;40.27;23.63;;;;;;;0.89;100.00;102496.53;700496;28;1520;-55
2022/01/26 00:10:30;;;;;;;39.55;23.35;;;;;;;0.89;100.00;102496.53;699934;28;1678;-53
2022/01/26 00:10:51;;;;;;;41.92;23.20;;;;;;;0.90;100.00;102497.41;700776;28;1266;-56
2022/01/26 00:11:11;;;;;;;40.70;22.77;;;;;;;0.90;100.00;102492.25;700556;28;1434;-53
2022/01/26 00:11:32;;;;;;;41.70;22.93;;;;;;;0.91;100.00;102500.09;696905;28;1408;-54
2022/01/26 00:11:53;;;;;;;40.05;22.90;;;;;;;0.91;100.00;102492.34;695756;28;3715;-54
2022/01/26 00:12:14;;;;;;;40.08;22.88;;;;;;;0.92;100.00;102486.41;696150;28;5263;-53
2022/01/26 00:12:35;;;;;;;39.35;23.00;;;;;;;0.93;100.00;102487.28;697573;28;1649;-56
2022/01/26 00:12:55;;;;;;;40.83;22.80;;;;;;;0.93;100.00;102484.72;696733;28;1226;-54
2022/01/26 00:13:15;;;;;;;42.60;22.73;;;;;;;0.93;100.00;102488.22;697396;28;1468;-54
2022/01/26 00:13:36;;;;;;;40.38;23.33;;;;;;;0.95;100.00;102488.31;701230;28;1134;-54
2022/01/26 00:13:58;;;;;;;40.83;23.63;;;;;;;0.94;100.00;102482.28;701502;28;1220;-55
2022/01/26 00:14:18;;;;;;;40.85;23.73;;;;;;;0.96;100.00;102484.94;700340;28;1123;-52
2022/01/26 00:14:42;;;;;;;41.10;23.50;;;;;;;0.95;100.00;102481.47;699938;28;3355;-57
2022/01/26 00:15:02;;;;;;;41.70;23.55;;;;;;;0.97;100.00;102486.69;698351;28;1420;-53
2022/01/26 00:15:23;;;;;;;41.47;23.40;;;;;;;0.95;100.00;102478.00;698929;28;4568;-54
2022/01/26 00:15:44;;;;;;;42.90;23.38;;;;;;;0.96;100.00;102480.69;699825;28;1516;-57
2022/01/26 00:16:08;;;;;;;43.53;23.77;;;;;;;0.96;100.00;102479.78;700183;28;1201;-55
2022/01/26 00:16:39;;;;;;;41.83;23.55;;;;;;;0.96;100.00;102485.81;697474;28;1425;-56
2022/01/26 00:17:01;;;;;;;43.67;24.42;;;;;;;0.96;100.00;102478.09;697568;28;1167;-53
2022/01/26 00:17:21;;;;;;;42.28;23.88;;;;;;;0.96;100.00;102478.09;697931;28;3286;-56
2022/01/26 00:17:42;;;;;;;39.40;22.90;;;;;;;0.97;100.00;102485.03;697185;28;2371;-53
2022/01/26 00:18:02;;;;;;;40.15;23.17;;;;;;;0.97;100.00;102479.88;696963;28;1170;-55
2022/01/26 00:18:23;;;;;;;42.13;23.50;;;;;;;0.98;100.00;102471.38;698889;28;5167;-54
2022/01/26 00:18:44;;;;;;;42.90;23.83;;;;;;;0.98;100.00;102483.34;700335;28;1337;-54
2022/01/26 00:19:07;;;;;;;41.10;23.90;;;;;;;0.98;100.00;102480.75;699707;28;1279;-53
2022/01/26 00:19:43;;;;;;;39.10;22.67;;;;;;;0.99;100.00;102483.44;700771;28;1353;-55
2022/01/26 00:20:45;;;;;;;39.42;23.17;;;;;;;0.97;100.00;102479.88;699419;28;1160;-55
2022/01/26 00:21:12;;;;;;;43.72;24.92;;;;;;;0.97;100.00;102478.97;698792;28;4367;-53
2022/01/26 00:21:37;;;;;;;40.72;23.48;;;;;;;0.96;100.00;102478.09;699870;28;1913;-57
2022/01/26 00:21:57;;;;;;;39.40;23.52;;;;;;;0.96;100.00;102477.22;699539;28;1159;-55
2022/01/26 00:22:38;;;;;;;39.55;23.55;;;;;;;0.96;100.00;102479.78;700069;28;1100;-55
2022/01/26 00:23:03;;;;;;;41.25;23.45;;;;;;;0.96;100.00;102482.38;699894;28;3253;-53
2022/01/26 00:24:11;;;;;;;38.95;22.52;;;;;;;0.95;100.00;102481.47;700293;28;2470;-54
2022/01/26 00:25:05;;;;;;;40.83;23.55;;;;;;;0.97;100.00;102479.88;701320;28;1063;-55
2022/01/26 00:26:27;;;;;;;40.78;23.63;;;;;;;0.96;100.00;102478.09;700438;28;1994;-53
2022/01/26 00:27:53;;;;;;;38.13;23.50;;;;;;;0.98;100.00;102479.09;699145;28;1411;-52
2022/01/26 00:29:11;;;;;;;39.83;23.15;;;;;;;0.99;100.00;102474.81;691988;28;3355;-57
2022/01/26 00:29:37;;;;;;;42.13;23.48;;;;;;;0.99;100.00;102485.13;693891;28;1163;-54
2022/01/26 00:30:14;;;;;;;40.78;23.27;;;;;;;0.99;100.00;102474.81;694681;28;1119;-55
2022/01/26 00:32:56;;;;;;;41.80;24.00;;;;;;;0.99;100.00;102482.56;699978;28;1155;-57
2022/01/26 00:33:06;;;;;;;40.40;23.17;;;;;;;1.01;100.00;102486.09;697398;28;2242;-56
2022/01/26 00:38:47;;;;;;;38.55;22.42;;;;;;;1.02;100.00;102486.22;700442;28;1155;-56
2022/01/26 00:39:08;;;;;;;39.25;23.40;;;;;;;1.02;100.00;102488.81;699352;28;5346;-57
2022/01/26 00:39:28;;;;;;;41.87;23.83;;;;;;;1.03;100.00;102489.69;700871;28;1212;-57
2022/01/26 00:39:49;;;;;;;41.20;23.25;;;;;;;1.01;100.00;102481.88;699573;28;1518;-54
2022/01/26 00:40:21;;;;;;;40.97;23.23;;;;;;;1.04;100.00;102490.56;699512;28;3389;-54
2022/01/26 00:40:51;;;;;;;40.30;23.02;;;;;;;1.04;100.00;102485.41;699623;28;1233;-56
2022/01/26 00:41:16;;;;;;;41.00;23.33;;;;;;;1.02;100.00;102487.91;700297;28;1229;-54
2022/01/26 00:41:39;;;;;;;39.58;23.20;;;;;;;1.01;100.00;102474.13;700369;28;1909;-52
2022/01/26 00:42:00;;;;;;;38.78;23.13;;;;;;;1.03;100.00;102489.69;698962;28;1233;-56
2022/01/26 00:42:20;;;;;;;40.67;22.70;;;;;;;1.01;100.00;102481.88;699597;28;4661;-55
2022/01/26 00:42:46;;;;;;;40.90;22.88;;;;;;;1.02;100.00;102487.91;699660;28;1239;-54
2022/01/26 00:43:16;;;;;;;38.75;23.55;;;;;;;1.02;100.00;102491.38;696876;28;3477;-52
2022/01/26 00:43:42;;;;;;;38.67;22.58;;;;;;;1.00;100.00;102486.91;697010;28;1264;-54
2022/01/26 00:44:04;;;;;;;38.28;22.42;;;;;;;0.99;100.00;102488.59;696631;28;1267;-55
2022/01/26 00:44:33;;;;;;;38.47;22.95;;;;;;;1.00;100.00;102489.50;695798;28;1264;-55
2022/01/26 00:44:53;;;;;;;38.75;22.70;;;;;;;1.01;100.00;102486.09;697722;28;1365;-55
2022/01/26 00:45:20;;;;;;;38.97;22.33;;;;;;;1.00;100.00;102490.38;699142;28;4543;-55
2022/01/26 00:45:41;;;;;;;43.05;24.02;;;;;;;1.02;100.00;102490.47;697722;28;3013;-56
2022/01/26 00:46:04;;;;;;;40.55;23.60;;;;;;;1.00;100.00;102498.09;696568;28;3759;-58
2022/01/26 00:46:26;;;;;;;39.92;22.52;;;;;;;1.01;100.00;102487.00;697302;28;2226;-52
2022/01/26 00:46:49;;;;;;;40.13;23.38;;;;;;;1.02;100.00;102495.63;697586;28;1352;-53
2022/01/26 00:47:09;;;;;;;39.13;23.30;;;;;;;1.01;100.00;102489.59;697768;28;1345;-55
2022/01/26 00:47:30;;;;;;;38.47;22.13;;;;;;;1.01;100.00;102492.16;698890;28;1499;-53
2022/01/26 00:47:51;;;;;;;38.83;22.17;;;;;;;1.04;100.00;102498.28;700813;28;1554;-52
2022/01/26 00:48:14;;;;;;;40.10;22.60;;;;;;;1.05;100.00;102497.50;698944;28;4521;-53
2022/01/26 00:48:37;;;;;;;41.22;23.38;;;;;;;1.05;100.00;102493.22;699359;28;3739;-53
2022/01/26 00:48:57;;;;;;;39.67;22.98;;;;;;;1.04;100.00;102496.63;698666;28;1325;-56
2022/01/26 00:49:21;;;;;;;39.83;22.45;;;;;;;1.03;100.00;102489.69;700864;28;1154;-53
2022/01/26 00:49:41;;;;;;;40.92;23.20;;;;;;;1.04;100.00;102493.13;698900;28;2650;-56
2022/01/26 00:50:06;;;;;;;41.70;23.70;;;;;;;1.02;100.00;102496.53;699132;28;1373;-53
2022/01/26 00:50:27;;;;;;;40.50;23.00;;;;;;;1.02;100.00;102493.97;696669;28;1440;-53
2022/01/26 00:50:52;;;;;;;39.33;22.90;;;;;;;1.02;100.00;102498.19;697499;28;1525;-55
2022/01/26 00:51:17;;;;;;;39.10;22.73;;;;;;;1.01;100.00;102492.16;694066;28;4349;-53
2022/01/26 00:51:38;;;;;;;39.83;22.58;;;;;;;1.02;100.00;102490.47;693830;28;3823;-56
2022/01/26 00:51:58;;;;;;;38.77;23.00;;;;;;;1.02;100.00;102493.97;693531;28;1431;-57
2022/01/26 00:52:27;;;;;;;40.55;23.33;;;;;;;1.04;100.00;102494.06;693415;28;1385;-52
2022/01/26 00:52:53;;;;;;;39.67;23.08;;;;;;;1.02;100.00;102496.53;694455;28;1488;-53
2022/01/26 00:53:13;;;;;;;38.00;22.52;;;;;;;1.01;100.00;102494.75;697157;28;1364;-57
2022/01/26 00:53:39;;;;;;;39.77;22.63;;;;;;;1.04;100.00;102500.88;696961;28;1338;-54
2022/01/26 00:54:04;;;;;;;39.92;23.02;;;;;;;1.02;100.00;102499.09;697242;28;1045;-53
2022/01/26 00:54:26;;;;;;;40.08;23.70;;;;;;;1.02;100.00;102503.34;699200;28;4868;-53
2022/01/26 00:54:46;;;;;;;37.90;22.25;;;;;;;1.03;100.00;102494.84;697427;28;2250;-57
2022/01/26 00:55:12;;;;;;;38.88;22.55;;;;;;;1.04;100.00;102493.13;697004;28;1134;-53
2022/01/26 00:55:33;;;;;;;41.55;23.42;;;;;;;1.03;100.00;102492.25;694479;28;1851;-56
2022/01/26 00:55:53;;;;;;;41.50;23.57;;;;;;;1.04;100.00;102485.41;693536;28;1044;-54
2022/01/26 00:56:15;;;;;;;42.95;24.52;;;;;;;1.05;100.00;102492.34;694353;28;1066;-53
2022/01/26 00:56:35;;;;;;;41.58;24.13;;;;;;;1.04;100.00;102491.47;695402;28;1040;-55
2022/01/26 00:56:56;;;;;;;42.50;24.67;;;;;;;1.04;100.00;102493.13;693970;28;3161;-55
2022/01/26 00:57:16;;;;;;;42.63;24.63;;;;;;;1.04;100.00;102485.41;693408;28;4468;-56
2022/01/26 00:57:37;;;;;;;39.95;24.17;;;;;;;1.05;100.00;102497.50;694364;28;974;-55
2022/01/26 00:57:57;;;;;;;43.25;24.67;;;;;;;1.05;100.00;102492.34;694352;28;1103;-54
2022/01/26 00:58:18;;;;;;;43.73;24.20;;;;;;;1.04;100.00;102490.56;693940;28;1291;-57
2022/01/26 00:58:38;;;;;;;43.90;24.48;;;;;;;1.04;100.00;102485.41;694837;28;1199;-56
2022/01/26 00:58:59;;;;;;;43.30;24.40;;;;;;;1.04;100.00;102495.72;697319;28;1233;-55
2022/01/26 00:59:19;;;;;;;42.65;24.17;;;;;;;1.03;100.00;102494.84;697769;28;927;-54
2022/01/26 00:59:40;;;;;;;41.87;23.60;;;;;;;1.04;100.00;102488.00;697620;28;1107;-54
2022/01/26 01:00:02;;;;;;;43.00;23.80;;;;;;;1.04;100.00;102491.47;697435;28;3352;-54
2022/01/26 01:00:26;;;;;;;46.30;24.65;;;;;;;1.03;100.00;102484.53;694529;28;5176;-57
2022/01/26 01:00:47;;;;;;;46.05;24.58;;;;;;;1.04;100.00;102483.75;691461;28;1906;-55
2022/01/26 01:01:07;;;;;;;43.47;23.37;;;;;;;1.05;100.00;102487.19;691208;28;1007;-53
2022/01/26 01:01:28;;;;;;;44.70;24.27;;;;;;;1.05;100.00;102482.06;692178;28;1132;-56
2022/01/26 01:01:49;;;;;;;45.78;25.02;;;;;;;1.05;100.00;102482.06;692009;28;1979;-53
2022/01/26 01:02:09;;;;;;;44.30;24.67;;;;;;;1.06;100.00;102483.84;692249;28;944;-55
2022/01/26 01:02:31;;;;;;;42.50;24.10;;;;;;;1.05;100.00;102490.66;694847;28;1064;-53
2022/01/26 01:02:54;;;;;;;45.55;25.02;;;;;;;1.06;100.00;102484.72;697068;28;3428;-55
2022/01/26 01:03:14;;;;;;;43.70;24.88;;;;;;;1.07;100.00;102488.22;694332;28;4302;-55
2022/01/26 01:03:38;;;;;;;45.27;25.20;;;;;;;1.06;100.00;102483.84;696940;28;1521;-57
2022/01/26 01:03:59;;;;;;;44.22;25.42;;;;;;;1.06;100.00;102489.00;696017;28;1148;-53
2022/01/26 01:04:19;;;;;;;43.10;24.70;;;;;;;1.06;100.00;102482.16;697330;28;1154;-57
2022/01/26 01:04:40;;;;;;;43.57;24.07;;;;;;;1.06;100.00;102482.16;697698;28;1238;-53
2022/01/26 01:05:10;;;;;;;42.70;24.33;;;;;;;1.06;100.00;102482.16;697775;28;1095;-56
2022/01/26 01:05:39;;;;;;;44.72;25.10;;;;;;;1.06;100.00;102476.13;700537;28;3790;-57
2022/01/26 01:06:25;;;;;;;45.28;25.40;;;;;;;1.06;100.00;102477.00;699180;28;1782;-55
2022/01/26 01:06:49;;;;;;;42.13;24.85;;;;;;;1.05;100.00;102474.31;700562;28;6438;-57
2022/01/26 01:07:16;;;;;;;45.55;24.90;;;;;;;1.05;100.00;102476.91;701006;28;1678;-55
2022/01/26 01:07:39;;;;;;;46.25;24.95;;;;;;;1.04;100.00;102485.41;700418;28;1037;-54
2022/01/26 01:08:07;;;;;;;42.05;24.20;;;;;;;1.04;100.00;102480.25;701107;28;1584;-55
2022/01/26 01:08:28;;;;;;;46.25;25.67;;;;;;;1.04;100.00;102477.69;699690;28;2005;-56
2022/01/26 01:08:49;;;;;;;44.83;24.98;;;;;;;1.02;100.00;102480.16;699117;28;3540;-53
2022/01/26 01:09:10;;;;;;;42.37;24.70;;;;;;;1.02;100.00;102478.50;698797;28;4404;-55
2022/01/26 01:09:33;;;;;;;42.53;24.95;;;;;;;1.01;100.00;102487.00;701898;28;1810;-52
2022/01/26 01:09:54;;;;;;;43.45;24.02;;;;;;;1.02;100.00;102480.16;700881;28;1601;-53
2022/01/26 01:10:18;;;;;;;43.28;23.95;;;;;;;1.03;100.00;102479.38;700378;28;1214;-54
2022/01/26 01:10:40;;;;;;;41.50;24.30;;;;;;;1.04;100.00;102483.75;701008;28;963;-54
2022/01/26 01:11:01;;;;;;;43.28;24.42;;;;;;;1.05;100.00;102492.34;698689;28;1385;-52
2022/01/26 01:11:21;;;;;;;45.53;25.10;;;;;;;1.04;100.00;102481.19;699919;28;4024;-50
2022/01/26 01:11:42;;;;;;;46.70;24.60;;;;;;;1.28;100.00;102484.38;697444;28;1761;-52
2022/01/26 01:12:05;;;;;;;44.38;24.60;;;;;;;1.47;100.00;102488.13;696755;28;1499;-53
2022/01/26 01:12:26;;;;;;;46.47;25.70;;;;;;;1.44;100.00;102482.75;697859;28;4609;-52
2022/01/26 01:12:48;;;;;;;44.97;24.80;;;;;;;1.40;100.00;102480.78;696648;28;1051;-53
2022/01/26 01:13:14;;;;;;;42.08;24.10;;;;;;;1.36;100.00;102484.88;697205;28;1475;-52
2022/01/26 01:13:39;;;;;;;44.78;24.48;;;;;;;1.31;100.00;102484.56;700065;28;1676;-55
2022/01/26 01:14:08;;;;;;;43.58;25.63;;;;;;;1.26;100.00;102483.41;700149;28;3254;-52
2022/01/26 01:14:31;;;;;;;46.67;25.73;;;;;;;1.23;100.00;102483.19;696161;28;1995;-50
2022/01/26 01:14:51;;;;;;;44.75;25.00;;;;;;;1.21;100.00;102477.06;697990;28;1749;-51
2022/01/26 01:15:13;;;;;;;45.63;25.67;;;;;;;1.19;100.00;102486.38;695955;28;4423;-52
2022/01/26 01:15:34;;;;;;;43.58;25.10;;;;;;;1.18;100.00;102482.03;696565;28;1039;-55
2022/01/26 01:15:54;;;;;;;48.38;24.92;;;;;;;1.18;100.00;102484.63;695192;28;1532;-53
2022/01/26 01:16:19;;;;;;;48.78;25.83;;;;;;;1.15;100.00;102481.81;695231;28;950;-54
2022/01/26 01:16:40;;;;;;;45.42;25.55;;;;;;;1.14;100.00;102483.53;697490;28;1394;-55
2022/01/26 01:17:03;;;;;;;45.93;25.57;;;;;;;1.13;100.00;102479.16;695733;28;3335;-51
2022/01/26 01:17:32;;;;;;;46.03;26.25;;;;;;;1.12;100.00;102481.63;695456;28;1106;-54
2022/01/26 01:18:04;;;;;;;45.63;25.13;;;;;;;1.11;100.00;102477.28;698035;28;895;-55
2022/01/26 01:18:34;;;;;;;46.97;25.73;;;;;;;1.10;100.00;102478.97;698022;28;5172;-55
2022/01/26 01:19:32;;;;;;;46.40;25.27;;;;;;;1.35;100.00;102473.66;696085;28;1282;-53
2022/01/26 01:20:10;;;;;;;46.28;26.08;;;;;;;1.35;100.00;102481.38;700011;28;4026;-52
2022/01/26 01:22:20;;;;;;;46.20;26.50;;;;;;;1.30;100.00;102475.09;700619;28;896;-56
2022/01/26 01:23:06;;;;;;;45.55;25.67;;;;;;;1.26;100.00;102478.25;699448;28;3680;-52
2022/01/26 01:29:45;;;;;;;45.72;25.92;;;;;;;1.13;100.00;102475.69;699430;28;976;-53
2022/01/26 01:30:24;;;;;;;50.15;25.58;;;;;;;1.11;100.00;102479.84;699553;28;4736;-55
2022/01/26 01:30:49;;;;;;;47.24;26.24;;;;;;;1.09;100.00;102474.59;698095;28;1368;-53
2022/01/26 01:31:15;;;;;;;48.13;26.25;;;;;;;1.10;100.00;102478.09;694113;28;3470;-53
2022/01/26 01:32:16;;;;;;;47.03;25.48;;;;;;;1.19;100.00;102476.97;695064;28;1254;-52
2022/01/26 01:32:50;;;;;;;44.90;25.05;;;;;;;1.16;100.00;102475.88;695697;28;1210;-54
2022/01/26 01:33:17;;;;;;;45.63;25.23;;;;;;;1.13;100.00;102480.84;700111;28;4514;-54
2022/01/26 01:33:43;;;;;;;44.75;25.45;;;;;;;1.12;100.00;102479.06;700758;28;1453;-55
2022/01/26 01:34:04;;;;;;;45.95;26.15;;;;;;;1.12;100.00;102479.06;698716;28;3334;-56
2022/01/26 01:34:30;;;;;;;45.85;26.00;;;;;;;1.11;100.00;102480.75;700167;28;1279;-55
2022/01/26 01:34:51;;;;;;;44.80;25.70;;;;;;;1.11;100.00;102478.19;700350;28;894;-54
2022/01/26 01:35:13;;;;;;;44.37;25.27;;;;;;;1.11;100.00;102477.28;699127;28;1012;-55
2022/01/26 01:35:36;;;;;;;46.30;25.77;;;;;;;1.10;100.00;102480.66;700247;28;1520;-53
2022/01/26 01:35:58;;;;;;;44.03;25.13;;;;;;;1.18;100.00;102479.47;700586;28;1414;-54
2022/01/26 01:36:21;;;;;;;44.45;24.65;;;;;;;1.36;100.00;102478.03;699658;28;4380;-53
2022/01/26 01:36:45;;;;;;;45.88;25.10;;;;;;;1.34;100.00;102477.06;699679;28;3321;-53
2022/01/26 01:37:08;;;;;;;45.03;25.00;;;;;;;1.30;100.00;102477.66;698947;28;1213;-54
2022/01/26 01:37:29;;;;;;;45.40;24.60;;;;;;;1.28;100.00;102474.06;699789;28;1119;-55
2022/01/26 01:37:50;;;;;;;44.13;24.87;;;;;;;1.26;100.00;102480.84;700473;28;1043;-55
2022/01/26 01:38:15;;;;;;;44.40;24.95;;;;;;;1.24;100.00;102481.53;696137;28;1309;-56
2022/01/26 01:38:39;;;;;;;45.53;25.73;;;;;;;1.21;100.00;102483.91;694739;28;1064;-54
2022/01/26 01:39:03;;;;;;;43.72;24.77;;;;;;;1.18;100.00;102485.50;694153;28;1537;-52
2022/01/26 01:39:23;;;;;;;45.60;25.45;;;;;;;1.16;100.00;102481.94;694973;28;4271;-51
2022/01/26 01:39:44;;;;;;;46.10;26.27;;;;;;;1.16;100.00;102491.34;693333;28;3637;-54
2022/01/26 01:40:05;;;;;;;47.10;26.48;;;;;;;1.14;100.00;102485.22;694557;28;1337;-55
2022/01/26 01:40:25;;;;;;;46.25;26.35;;;;;;;1.13;100.00;102486.88;695686;28;1325;-53
2022/01/26 01:40:48;;;;;;;47.43;25.97;;;;;;;1.17;100.00;102487.97;697598;28;1151;-52
2022/01/26 01:41:09;;;;;;;48.38;26.25;;;;;;;1.16;100.00;102481.03;695001;28;2031;-56
2022/01/26 01:41:29;;;;;;;49.13;25.80;;;;;;;1.13;100.00;102486.88;695322;28;1226;-56
2022/01/26 01:41:51;;;;;;;46.72;26.13;;;;;;;1.12;100.00;102486.78;698424;28;1909;-53
2022/01/26 01:42:11;;;;;;;48.08;26.65;;;;;;;1.10;100.00;102478.97;696459;28;4607;-54
2022/01/26 01:42:32;;;;;;;46.30;26.00;;;;;;;1.10;100.00;102481.53;697019;28;3526;-52
2022/01/26 01:42:52;;;;;;;47.70;25.77;;;;;;;1.11;100.00;102482.44;697981;28;1163;-53
2022/01/26 01:43:15;;;;;;;47.35;25.48;;;;;;;1.09;100.00;102478.88;699378;28;1030;-53
2022/01/26 01:43:37;;;;;;;49.92;25.77;;;;;;;1.10;100.00;102490.97;699819;28;1336;-52
2022/01/26 01:43:57;;;;;;;47.00;25.70;;;;;;;1.10;100.00;102485.81;697819;28;1167;-55
2022/01/26 01:44:18;;;;;;;48.97;25.97;;;;;;;1.10;100.00;102485.81;697834;28;1331;-52
2022/01/26 01:44:39;;;;;;;48.30;26.10;;;;;;;1.06;100.00;102486.41;695737;28;1039;-52
2022/01/26 01:44:59;;;;;;;46.97;26.27;;;;;;;1.08;100.00;102484.81;698069;28;1043;-53
2022/01/26 01:45:33;;;;;;;47.23;26.10;;;;;;;1.06;100.00;102482.16;696692;28;4271;-53
2022/01/26 01:45:55;;;;;;;47.15;26.70;;;;;;;1.06;100.00;102483.84;697756;28;2746;-55
2022/01/26 01:46:16;;;;;;;47.72;26.35;;;;;;;1.05;100.00;102482.94;701905;28;1012;-52
2022/01/26 01:46:38;;;;;;;48.20;26.38;;;;;;;1.05;100.00;102490.66;697773;28;1178;-52
2022/01/26 01:46:58;;;;;;;47.90;25.83;;;;;;;1.05;100.00;102487.19;696042;28;1143;-54
2022/01/26 01:47:18;;;;;;;49.85;27.02;;;;;;;1.06;100.00;102494.16;698254;28;1241;-53
2022/01/26 01:47:39;;;;;;;47.83;27.07;;;;;;;1.05;100.00;102488.09;694240;28;1499;-54
2022/01/26 01:47:59;;;;;;;47.97;27.05;;;;;;;1.05;100.00;102495.81;693092;28;3187;-56
2022/01/26 01:48:26;;;;;;;46.40;26.30;;;;;;;1.07;100.00;102493.38;693873;28;4961;-52
2022/01/26 01:48:47;;;;;;;48.00;26.33;;;;;;;1.07;100.00;102501.09;696195;28;1115;-55
2022/01/26 01:49:09;;;;;;;47.10;26.30;;;;;;;1.06;100.00;102505.31;695897;28;1214;-53
2022/01/26 01:49:30;;;;;;;46.20;26.02;;;;;;;1.06;100.00;102501.88;698820;28;1086;-52
2022/01/26 01:49:50;;;;;;;49.00;26.80;;;;;;;1.05;100.00;102498.38;701826;28;1098;-54
2022/01/26 01:50:12;;;;;;;49.17;26.90;;;;;;;1.06;100.00;102502.75;700464;28;948;-56
2022/01/26 01:50:40;;;;;;;48.55;26.23;;;;;;;1.07;100.00;102501.09;700456;28;1157;-55
2022/01/26 01:51:05;;;;;;;47.92;26.35;;;;;;;1.06;100.00;102500.19;699478;28;4256;-55
2022/01/26 01:51:36;;;;;;;45.92;26.77;;;;;;;1.07;100.00;102501.09;699865;28;4865;-53
2022/01/26 01:52:01;;;;;;;47.35;26.45;;;;;;;1.06;100.00;102501.88;698843;28;1455;-54
2022/01/26 01:52:22;;;;;;;47.17;26.52;;;;;;;1.06;100.00;102501.88;698143;28;1294;-53
2022/01/26 01:52:43;;;;;;;48.25;25.95;;;;;;;1.05;100.00;102502.66;699651;28;1109;-53
2022/01/26 01:53:03;;;;;;;48.58;25.92;;;;;;;1.06;100.00;102501.88;698597;28;1310;-52
2022/01/26 01:53:31;;;;;;;45.17;25.97;;;;;;;1.05;100.00;102488.09;699050;28;1059;-54
2022/01/26 01:53:52;;;;;;;48.38;26.65;;;;;;;1.05;100.00;102492.34;697663;28;3654;-53
2022/01/26 01:54:17;;;;;;;49.67;26.30;;;;;;;1.05;100.00;102497.50;695084;28;4555;-54
2022/01/26 01:54:40;;;;;;;48.95;26.73;;;;;;;1.05;100.00;102487.19;697041;28;1557;-53
2022/01/26 01:55:04;;;;;;;46.38;25.73;;;;;;;1.05;100.00;102487.19;695337;28;1118;-55
2022/01/26 01:55:27;;;;;;;48.13;26.58;;;;;;;1.04;100.00;102493.13;695678;28;1195;-52
2022/01/26 01:55:50;;;;;;;49.83;27.40;;;;;;;1.03;100.00;102484.53;697088;28;1640;-52
2022/01/26 01:56:15;;;;;;;48.15;27.70;;;;;;;1.04;100.00;102488.00;695574;28;991;-55
2022/01/26 01:56:38;;;;;;;47.72;27.50;;;;;;;1.02;100.00;102478.50;697271;28;3398;-55
2022/01/26 01:56:59;;;;;;;48.67;26.88;;;;;;;1.02;100.00;102480.16;696065;28;1158;-55
2022/01/26 01:57:25;;;;;;;49.67;26.67;;;;;;;1.03;100.00;102489.69;697440;28;4438;-53
2022/01/26 01:57:46;;;;;;;50.08;26.80;;;;;;;1.02;100.00;102481.09;696858;28;1118;-52
2022/01/26 01:58:06;;;;;;;48.13;26.70;;;;;;;1.03;100.00;102492.25;696449;28;1035;-56
2022/01/26 01:58:28;;;;;;;48.95;26.90;;;;;;;1.04;100.00;102495.72;695878;28;1116;-53
2022/01/26 01:58:48;;;;;;;48.00;26.40;;;;;;;1.01;100.00;102479.28;697988;28;1063;-54
2022/01/26 01:59:11;;;;;;;49.30;26.40;;;;;;;1.01;100.00;102489.59;696493;28;1395;-53
2022/01/26 01:59:33;;;;;;;52.00;27.02;;;;;;;1.04;100.00;102482.84;697760;28;3486;-52
2022/01/26 01:59:53;;;;;;;47.65;25.88;;;;;;;1.04;100.00;102483.75;698483;28;1296;-52
2022/01/26 02:00:14;;;;;;;46.22;26.27;;;;;;;1.05;100.00;102482.06;700424;28;4325;-54
2022/01/26 02:00:39;;;;;;;48.95;26.33;;;;;;;1.05;100.00;102477.78;700323;28;1058;-55
2022/01/26 02:00:59;;;;;;;48.90;27.25;;;;;;;1.06;100.00;102481.25;700540;28;1011;-54
2022/01/26 02:01:20;;;;;;;49.43;27.13;;;;;;;1.05;100.00;102474.31;700532;28;1122;-53
2022/01/26 02:01:41;;;;;;;49.97;27.33;;;;;;;1.04;100.00;102481.19;696001;28;1902;-53
2022/01/26 02:02:02;;;;;;;46.50;26.60;;;;;;;1.02;100.00;102483.66;694203;28;1151;-54
2022/01/26 02:02:23;;;;;;;47.72;26.73;;;;;;;1.04;100.00;102477.69;694074;28;3316;-55
2022/01/26 02:02:43;;;;;;;48.45;26.98;;;;;;;1.04;100.00;102480.25;693537;28;1254;-54
2022/01/26 02:03:04;;;;;;;47.70;26.80;;;;;;;1.01;100.00;102479.28;691528;28;1519;-53
2022/01/26 02:03:25;;;;;;;48.13;26.60;;;;;;;1.01;100.00;102476.72;691258;28;4809;-53
2022/01/26 02:03:45;;;;;;;49.58;27.20;;;;;;;1.02;100.00;102488.81;694594;28;1048;-55
2022/01/26 02:04:07;;;;;;;48.75;27.23;;;;;;;1.04;100.00;102477.69;694554;28;1261;-52
2022/01/26 02:04:28;;;;;;;46.63;26.00;;;;;;;1.02;100.00;102481.09;695281;28;1040;-55
2022/01/26 02:04:49;;;;;;;49.05;26.65;;;;;;;1.04;100.00;102480.25;695170;28;1079;-55
2022/01/26 02:05:10;;;;;;;48.45;26.67;;;;;;;1.04;100.00;102480.25;693475;28;3357;-53
2022/01/26 02:05:30;;;;;;;47.50;27.00;;;;;;;1.04;100.00;102477.69;691909;28;1218;-55
2022/01/26 02:05:51;;;;;;;49.07;26.47;;;;;;;1.03;100.00;102481.97;692205;28;1337;-53
2022/01/26 02:06:11;;;;;;;49.63;26.88;;;;;;;1.04;100.00;102478.59;693549;28;4860;-53
2022/01/26 02:06:32;;;;;;;49.95;27.48;;;;;;;1.04;100.00;102480.25;694199;28;1159;-54
2022/01/26 02:06:52;;;;;;;49.70;26.97;;;;;;;1.05;100.00;102479.47;694602;28;1150;-52
2022/01/26 02:07:13;;;;;;;48.33;27.42;;;;;;;1.04;100.00;102477.69;695456;28;1175;-56
2022/01/26 02:08:04;;;;;;;;;;;;;;;;;;;;;
2022/01/26 02:08:30;;;;;;;50.97;26.65;;;;;;;1.05;100.00;102476.91;691778;28;1115;-56
2022/01/26 02:08:51;;;;;;;49.77;27.57;;;;;;;1.05;100.00;102482.06;694748;28;1087;-53
2022/01/26 02:09:11;;;;;;;50.60;27.98;;;;;;;1.04;100.00;102473.44;693422;28;4394;-53
2022/01/26 02:09:32;;;;;;;50.07;27.33;;;;;;;1.05;100.00;102474.31;695863;28;1437;-53
2022/01/26 02:09:52;;;;;;;50.50;27.90;;;;;;;1.05;100.00;102476.91;696526;28;1096;-52
2022/01/26 02:10:13;;;;;;;49.92;27.25;;;;;;;1.05;100.00;102476.91;696682;28;1079;-52
2022/01/26 02:10:34;;;;;;;51.60;27.43;;;;;;;1.04;100.00;102480.25;697943;28;2082;-54
2022/01/26 02:10:55;;;;;;;51.97;27.70;;;;;;;1.04;100.00;102480.25;696461;28;3717;-52
2022/01/26 02:11:16;;;;;;;50.47;27.30;;;;;;;1.04;100.00;102477.69;693642;28;1446;-54
2022/01/26 02:11:51;;;;;;;50.38;27.65;;;;;;;1.04;100.00;102475.09;692779;28;1337;-55
2022/01/26 02:12:19;;;;;;;50.40;27.83;;;;;;;1.03;100.00;102479.38;692481;28;4311;-55
2022/01/26 02:12:47;;;;;;;48.88;27.15;;;;;;;1.03;100.00;102476.81;695695;28;1364;-56
2022/01/26 02:13:18;;;;;;;53.28;27.77;;;;;;;1.02;100.00;102475.94;693416;28;1274;-55
2022/01/26 02:13:55;;;;;;;50.45;27.63;;;;;;;1.04;100.00;102477.69;696190;28;3631;-53
2022/01/26 02:14:39;;;;;;;49.47;27.52;;;;;;;1.05;100.00;102476.91;696291;28;1172;-55
2022/01/26 02:15:09;;;;;;;47.60;27.05;;;;;;;1.04;100.00;102473.44;696757;28;1694;-55
2022/01/26 02:15:42;;;;;;;50.50;27.23;;;;;;;1.03;100.00;102474.22;697840;28;5065;-53
2022/01/26 02:16:48;;;;;;;50.63;27.67;;;;;;;1.02;100.00;102470.78;698445;28;2297;-54